sensor_id;sensor_type;location;lat;lon;timestamp;pressure;altitude;pressure_sealevel;temperature;humidity
56789;BME280;42657;51.650;17.780;2022-12-18T00:01:00;101708.92;;;-5.35;80.01
56789;BME280;42657;51.650;17.780;2022-12-18T00:04:24;101718.22;;;-5.38;80.04
56789;BME280;42657;51.650;17.780;2022-12-18T00:07:26;101722.10;;;-5.40;80.14
56789;BME280;42657;51.650;17.780;2022-12-18T00:10:28;101720.66;;;-5.42;80.27
56789;BME280;42657;51.650;17.780;2022-12-18T00:13:30;101723.45;;;-5.44;80.29
56789;BME280;42657;51.650;17.780;2022-12-18T00:16:31;101721.74;;;-5.47;80.14
56789;BME280;42657;51.650;17.780;2022-12-18T00:19:33;101724.63;;;-5.49;80.17
56789;BME280;42657;51.650;17.780;2022-12-18T00:22:34;101731.55;;;-5.50;80.14
56789;BME280;42657;51.650;17.780;2022-12-18T00:25:36;101739.48;;;-5.53;80.16
56789;BME280;42657;51.650;17.780;2022-12-18T00:28:38;101741.64;;;-5.56;80.26
56789;BME280;42657;51.650;17.780;2022-12-18T00:31:40;101747.27;;;-5.56;80.34
56789;BME280;42657;51.650;17.780;2022-12-18T00:34:41;101752.61;;;-5.60;80.34
56789;BME280;42657;51.650;17.780;2022-12-18T00:37:43;101749.23;;;-5.66;80.43
56789;BME280;42657;51.650;17.780;2022-12-18T00:40:44;101747.41;;;-5.72;80.31
56789;BME280;42657;51.650;17.780;2022-12-18T00:43:46;101753.09;;;-5.73;80.26
56789;BME280;42657;51.650;17.780;2022-12-18T00:46:48;101751.46;;;-5.75;80.44
56789;BME280;42657;51.650;17.780;2022-12-18T00:49:50;101758.34;;;-5.78;80.49
56789;BME280;42657;51.650;17.780;2022-12-18T00:52:52;101763.88;;;-5.80;80.57
56789;BME280;42657;51.650;17.780;2022-12-18T00:55:53;101772.34;;;-5.83;80.53
56789;BME280;42657;51.650;17.780;2022-12-18T00:58:55;101775.39;;;-5.88;80.45
56789;BME280;42657;51.650;17.780;2022-12-18T01:01:56;101781.60;;;-5.95;80.47
56789;BME280;42657;51.650;17.780;2022-12-18T01:05:03;101781.75;;;-5.97;80.54
56789;BME280;42657;51.650;17.780;2022-12-18T01:08:05;101778.50;;;-6.00;80.80
56789;BME280;42657;51.650;17.780;2022-12-18T01:11:12;101781.67;;;-6.02;80.79
56789;BME280;42657;51.650;17.780;2022-12-18T01:14:14;101787.29;;;-6.03;80.80
56789;BME280;42657;51.650;17.780;2022-12-18T01:17:15;101781.98;;;-6.04;80.69
56789;BME280;42657;51.650;17.780;2022-12-18T01:20:17;101790.73;;;-6.07;80.67
56789;BME280;42657;51.650;17.780;2022-12-18T01:23:18;101793.13;;;-6.11;80.67
56789;BME280;42657;51.650;17.780;2022-12-18T01:26:20;101802.64;;;-6.14;80.83
56789;BME280;42657;51.650;17.780;2022-12-18T01:29:22;101806.37;;;-6.20;80.85
56789;BME280;42657;51.650;17.780;2022-12-18T01:32:23;101806.38;;;-6.25;80.99
56789;BME280;42657;51.650;17.780;2022-12-18T01:35:25;101803.29;;;-6.29;81.06
56789;BME280;42657;51.650;17.780;2022-12-18T01:38:28;101801.72;;;-6.31;81.02
56789;BME280;42657;51.650;17.780;2022-12-18T01:41:31;101805.59;;;-6.34;81.21
56789;BME280;42657;51.650;17.780;2022-12-18T01:47:57;101810.52;;;-6.40;81.18
56789;BME280;42657;51.650;17.780;2022-12-18T01:51:00;101817.48;;;-6.42;81.22
56789;BME280;42657;51.650;17.780;2022-12-18T01:54:02;101816.40;;;-6.43;81.26
56789;BME280;42657;51.650;17.780;2022-12-18T01:57:03;101824.27;;;-6.44;81.29
56789;BME280;42657;51.650;17.780;2022-12-18T02:00:17;101824.06;;;-6.41;81.34
56789;BME280;42657;51.650;17.780;2022-12-18T02:03:19;101819.58;;;-6.36;81.42
56789;BME280;42657;51.650;17.780;2022-12-18T02:06:29;101823.85;;;-6.35;81.55
56789;BME280;42657;51.650;17.780;2022-12-18T02:09:42;101832.89;;;-6.34;81.34
56789;BME280;42657;51.650;17.780;2022-12-18T02:16:29;101841.66;;;-6.29;81.29
56789;BME280;42657;51.650;17.780;2022-12-18T02:27:06;101865.14;;;-6.50;81.07
56789;BME280;42657;51.650;17.780;2022-12-18T02:30:08;101866.22;;;-6.56;81.16
56789;BME280;42657;51.650;17.780;2022-12-18T02:33:11;101871.80;;;-6.56;81.44
56789;BME280;42657;51.650;17.780;2022-12-18T02:36:16;101874.11;;;-6.54;81.51
56789;BME280;42657;51.650;17.780;2022-12-18T02:39:20;101881.10;;;-6.51;81.45
56789;BME280;42657;51.650;17.780;2022-12-18T02:42:23;101880.27;;;-6.52;81.34
56789;BME280;42657;51.650;17.780;2022-12-18T02:45:25;101874.13;;;-6.59;81.43
56789;BME280;42657;51.650;17.780;2022-12-18T02:48:32;101874.40;;;-6.63;81.61
56789;BME280;42657;51.650;17.780;2022-12-18T02:52:11;101875.94;;;-6.63;81.67
56789;BME280;42657;51.650;17.780;2022-12-18T02:55:30;101878.20;;;-6.60;81.63
56789;BME280;42657;51.650;17.780;2022-12-18T02:58:42;101884.33;;;-6.60;81.53
56789;BME280;42657;51.650;17.780;2022-12-18T03:05:17;101886.81;;;-6.63;81.47
56789;BME280;42657;51.650;17.780;2022-12-18T03:08:27;101895.30;;;-6.64;81.49
56789;BME280;42657;51.650;17.780;2022-12-18T03:11:32;101896.44;;;-6.69;81.46
56789;BME280;42657;51.650;17.780;2022-12-18T03:14:37;101895.77;;;-6.74;81.38
56789;BME280;42657;51.650;17.780;2022-12-18T03:17:41;101894.78;;;-6.78;81.52
56789;BME280;42657;51.650;17.780;2022-12-18T03:20:47;101896.42;;;-6.79;81.39
56789;BME280;42657;51.650;17.780;2022-12-18T03:23:52;101899.02;;;-6.76;81.42
56789;BME280;42657;51.650;17.780;2022-12-18T03:26:58;101900.33;;;-6.77;81.56
56789;BME280;42657;51.650;17.780;2022-12-18T03:30:06;101898.38;;;-6.84;81.48
56789;BME280;42657;51.650;17.780;2022-12-18T03:34:04;101902.38;;;-6.92;81.38
56789;BME280;42657;51.650;17.780;2022-12-18T03:36:45;101905.10;;;-6.94;81.53
56789;BME280;42657;51.650;17.780;2022-12-18T03:39:47;101911.35;;;-6.93;81.66
56789;BME280;42657;51.650;17.780;2022-12-18T03:42:59;101916.02;;;-6.95;81.62
56789;BME280;42657;51.650;17.780;2022-12-18T03:46:13;101921.13;;;-6.93;81.67
56789;BME280;42657;51.650;17.780;2022-12-18T03:49:27;101926.38;;;-6.90;81.63
56789;BME280;42657;51.650;17.780;2022-12-18T03:52:49;101928.42;;;-6.92;81.45
56789;BME280;42657;51.650;17.780;2022-12-18T03:55:53;101926.75;;;-7.01;81.37
56789;BME280;42657;51.650;17.780;2022-12-18T03:58:57;101932.92;;;-7.13;81.18
56789;BME280;42657;51.650;17.780;2022-12-18T04:02:06;101937.33;;;-7.19;81.47
56789;BME280;42657;51.650;17.780;2022-12-18T04:05:09;101941.46;;;-7.18;81.48
56789;BME280;42657;51.650;17.780;2022-12-18T04:08:12;101943.41;;;-7.15;81.49
56789;BME280;42657;51.650;17.780;2022-12-18T04:11:15;101945.74;;;-7.14;81.44
56789;BME280;42657;51.650;17.780;2022-12-18T04:14:17;101943.55;;;-7.18;81.59
56789;BME280;42657;51.650;17.780;2022-12-18T04:17:18;101941.88;;;-7.22;81.38
56789;BME280;42657;51.650;17.780;2022-12-18T04:20:20;101947.15;;;-7.25;81.52
56789;BME280;42657;51.650;17.780;2022-12-18T04:23:21;101950.23;;;-7.24;81.45
56789;BME280;42657;51.650;17.780;2022-12-18T04:26:23;101954.19;;;-7.18;81.69
56789;BME280;42657;51.650;17.780;2022-12-18T04:29:24;101957.62;;;-7.19;81.42
56789;BME280;42657;51.650;17.780;2022-12-18T04:32:26;101956.88;;;-7.21;81.55
56789;BME280;42657;51.650;17.780;2022-12-18T04:35:27;101963.57;;;-7.22;81.54
56789;BME280;42657;51.650;17.780;2022-12-18T04:38:29;101967.77;;;-7.20;81.69
56789;BME280;42657;51.650;17.780;2022-12-18T04:41:30;101968.56;;;-7.16;81.61
56789;BME280;42657;51.650;17.780;2022-12-18T04:44:32;101973.16;;;-7.14;81.60
56789;BME280;42657;51.650;17.780;2022-12-18T04:47:33;101973.16;;;-7.11;81.63
56789;BME280;42657;51.650;17.780;2022-12-18T04:50:35;101981.70;;;-7.08;81.80
56789;BME280;42657;51.650;17.780;2022-12-18T04:53:36;101979.56;;;-7.08;81.65
56789;BME280;42657;51.650;17.780;2022-12-18T04:56:38;101982.89;;;-7.10;81.58
56789;BME280;42657;51.650;17.780;2022-12-18T04:59:39;101992.20;;;-7.14;81.48
56789;BME280;42657;51.650;17.780;2022-12-18T05:02:41;101999.29;;;-7.13;81.61
56789;BME280;42657;51.650;17.780;2022-12-18T05:05:42;102005.19;;;-7.12;81.60
56789;BME280;42657;51.650;17.780;2022-12-18T05:08:44;102004.52;;;-7.15;81.60
56789;BME280;42657;51.650;17.780;2022-12-18T05:11:45;102009.08;;;-7.18;81.78
56789;BME280;42657;51.650;17.780;2022-12-18T05:14:46;102004.49;;;-7.21;81.57
56789;BME280;42657;51.650;17.780;2022-12-18T05:17:48;102009.56;;;-7.18;81.82
56789;BME280;42657;51.650;17.780;2022-12-18T05:20:51;102008.45;;;-7.17;81.76
56789;BME280;42657;51.650;17.780;2022-12-18T05:23:52;102015.77;;;-7.20;81.73
56789;BME280;42657;51.650;17.780;2022-12-18T05:26:54;102019.84;;;-7.25;81.63
56789;BME280;42657;51.650;17.780;2022-12-18T05:29:55;102019.22;;;-7.30;81.55
56789;BME280;42657;51.650;17.780;2022-12-18T05:32:57;102018.73;;;-7.33;81.57
56789;BME280;42657;51.650;17.780;2022-12-18T05:36:02;102019.35;;;-7.32;81.67
56789;BME280;42657;51.650;17.780;2022-12-18T05:39:04;102019.73;;;-7.29;81.71
56789;BME280;42657;51.650;17.780;2022-12-18T05:42:06;102028.76;;;-7.29;81.83
56789;BME280;42657;51.650;17.780;2022-12-18T05:45:08;102031.88;;;-7.31;81.82
56789;BME280;42657;51.650;17.780;2022-12-18T05:48:09;102037.92;;;-7.33;81.75
56789;BME280;42657;51.650;17.780;2022-12-18T05:51:15;102041.86;;;-7.31;81.79
56789;BME280;42657;51.650;17.780;2022-12-18T05:54:17;102045.64;;;-7.30;81.62
56789;BME280;42657;51.650;17.780;2022-12-18T05:57:19;102048.06;;;-7.33;81.63
56789;BME280;42657;51.650;17.780;2022-12-18T06:00:20;102047.50;;;-7.36;81.74
56789;BME280;42657;51.650;17.780;2022-12-18T06:03:22;102051.30;;;-7.43;81.59
56789;BME280;42657;51.650;17.780;2022-12-18T06:06:26;102058.29;;;-7.46;81.78
56789;BME280;42657;51.650;17.780;2022-12-18T06:09:30;102063.17;;;-7.43;81.85
56789;BME280;42657;51.650;17.780;2022-12-18T06:12:31;102063.55;;;-7.38;81.97
56789;BME280;42657;51.650;17.780;2022-12-18T06:15:36;102065.88;;;-7.33;81.87
56789;BME280;42657;51.650;17.780;2022-12-18T06:18:38;102070.27;;;-7.31;81.86
56789;BME280;42657;51.650;17.780;2022-12-18T06:21:40;102071.41;;;-7.26;82.09
56789;BME280;42657;51.650;17.780;2022-12-18T06:24:41;102069.40;;;-7.28;81.98
56789;BME280;42657;51.650;17.780;2022-12-18T06:27:43;102074.28;;;-7.31;81.77
56789;BME280;42657;51.650;17.780;2022-12-18T06:30:46;102084.20;;;-7.33;81.73
56789;BME280;42657;51.650;17.780;2022-12-18T06:33:47;102087.87;;;-7.36;81.79
56789;BME280;42657;51.650;17.780;2022-12-18T06:36:49;102087.27;;;-7.37;81.81
56789;BME280;42657;51.650;17.780;2022-12-18T06:39:50;102089.80;;;-7.36;81.87
56789;BME280;42657;51.650;17.780;2022-12-18T06:42:51;102093.77;;;-7.35;81.83
56789;BME280;42657;51.650;17.780;2022-12-18T06:45:59;102100.20;;;-7.35;81.94
56789;BME280;42657;51.650;17.780;2022-12-18T06:49:01;102104.30;;;-7.30;81.92
56789;BME280;42657;51.650;17.780;2022-12-18T06:52:02;102107.84;;;-7.28;81.83
56789;BME280;42657;51.650;17.780;2022-12-18T06:55:05;102115.91;;;-7.28;81.78
56789;BME280;42657;51.650;17.780;2022-12-18T06:58:06;102125.21;;;-7.30;81.79
56789;BME280;42657;51.650;17.780;2022-12-18T07:01:10;102126.35;;;-7.34;81.80
56789;BME280;42657;51.650;17.780;2022-12-18T07:04:12;102122.64;;;-7.36;81.61
56789;BME280;42657;51.650;17.780;2022-12-18T07:07:13;102128.50;;;-7.35;81.69
56789;BME280;42657;51.650;17.780;2022-12-18T07:10:15;102130.82;;;-7.36;81.64
56789;BME280;42657;51.650;17.780;2022-12-18T07:13:16;102138.09;;;-7.37;81.54
56789;BME280;42657;51.650;17.780;2022-12-18T07:16:19;102141.73;;;-7.43;81.52
56789;BME280;42657;51.650;17.780;2022-12-18T07:19:21;102145.88;;;-7.48;81.57
56789;BME280;42657;51.650;17.780;2022-12-18T07:22:25;102144.23;;;-7.44;81.66
56789;BME280;42657;51.650;17.780;2022-12-18T07:25:26;102147.73;;;-7.38;81.71
56789;BME280;42657;51.650;17.780;2022-12-18T07:28:28;102147.44;;;-7.36;81.44
56789;BME280;42657;51.650;17.780;2022-12-18T07:31:29;102148.39;;;-7.37;81.39
56789;BME280;42657;51.650;17.780;2022-12-18T07:34:31;102156.09;;;-7.41;81.34
56789;BME280;42657;51.650;17.780;2022-12-18T07:37:32;102158.88;;;-7.40;81.46
56789;BME280;42657;51.650;17.780;2022-12-18T07:40:34;102166.23;;;-7.38;81.43
56789;BME280;42657;51.650;17.780;2022-12-18T07:43:36;102165.60;;;-7.34;81.47
56789;BME280;42657;51.650;17.780;2022-12-18T07:46:38;102170.79;;;-7.32;81.39
56789;BME280;42657;51.650;17.780;2022-12-18T07:49:39;102178.13;;;-7.26;81.37
56789;BME280;42657;51.650;17.780;2022-12-18T07:52:41;102182.83;;;-7.23;81.41
56789;BME280;42657;51.650;17.780;2022-12-18T07:55:42;102183.64;;;-7.17;81.45
56789;BME280;42657;51.650;17.780;2022-12-18T07:58:44;102186.05;;;-7.08;81.33
56789;BME280;42657;51.650;17.780;2022-12-18T08:01:45;102183.50;;;-6.97;81.20
56789;BME280;42657;51.650;17.780;2022-12-18T08:04:47;102185.53;;;-6.85;81.35
56789;BME280;42657;51.650;17.780;2022-12-18T08:07:48;102191.23;;;-6.70;81.27
56789;BME280;42657;51.650;17.780;2022-12-18T08:10:50;102192.49;;;-6.65;80.97
56789;BME280;42657;51.650;17.780;2022-12-18T08:13:52;102191.37;;;-6.63;80.80
56789;BME280;42657;51.650;17.780;2022-12-18T08:16:53;102198.89;;;-6.55;81.04
56789;BME280;42657;51.650;17.780;2022-12-18T08:19:55;102201.95;;;-6.48;80.76
56789;BME280;42657;51.650;17.780;2022-12-18T08:22:56;102217.98;;;-6.47;80.40
56789;BME280;42657;51.650;17.780;2022-12-18T08:25:58;102217.11;;;-6.42;80.25
56789;BME280;42657;51.650;17.780;2022-12-18T08:29:00;102215.14;;;-6.36;80.12
56789;BME280;42657;51.650;17.780;2022-12-18T08:32:01;102211.84;;;-6.30;80.05
56789;BME280;42657;51.650;17.780;2022-12-18T08:35:03;102208.06;;;-6.29;80.01
56789;BME280;42657;51.650;17.780;2022-12-18T08:38:05;102211.13;;;-6.28;79.95
56789;BME280;42657;51.650;17.780;2022-12-18T08:41:14;102207.00;;;-6.23;79.85
56789;BME280;42657;51.650;17.780;2022-12-18T08:44:16;102216.57;;;-6.19;79.87
56789;BME280;42657;51.650;17.780;2022-12-18T08:47:17;102226.53;;;-6.14;79.94
56789;BME280;42657;51.650;17.780;2022-12-18T08:50:19;102232.42;;;-6.08;79.79
56789;BME280;42657;51.650;17.780;2022-12-18T08:53:20;102241.14;;;-5.99;79.73
56789;BME280;42657;51.650;17.780;2022-12-18T08:56:22;102246.72;;;-5.94;79.83
56789;BME280;42657;51.650;17.780;2022-12-18T08:59:23;102245.23;;;-5.87;79.81
56789;BME280;42657;51.650;17.780;2022-12-18T09:02:25;102242.70;;;-5.78;79.77
56789;BME280;42657;51.650;17.780;2022-12-18T09:05:26;102244.29;;;-5.65;79.55
56789;BME280;42657;51.650;17.780;2022-12-18T09:08:28;102241.21;;;-5.50;79.51
56789;BME280;42657;51.650;17.780;2022-12-18T09:11:31;102235.48;;;-5.43;79.15
56789;BME280;42657;51.650;17.780;2022-12-18T09:14:33;102232.14;;;-5.34;79.21
56789;BME280;42657;51.650;17.780;2022-12-18T09:17:35;102233.17;;;-5.29;79.02
56789;BME280;42657;51.650;17.780;2022-12-18T09:20:37;102236.33;;;-5.24;79.07
56789;BME280;42657;51.650;17.780;2022-12-18T09:23:39;102232.84;;;-5.17;78.95
56789;BME280;42657;51.650;17.780;2022-12-18T09:26:40;102229.78;;;-5.13;78.84
56789;BME280;42657;51.650;17.780;2022-12-18T09:29:42;102228.96;;;-5.03;78.77
56789;BME280;42657;51.650;17.780;2022-12-18T09:32:43;102218.50;;;-4.94;78.68
56789;BME280;42657;51.650;17.780;2022-12-18T09:35:46;102225.35;;;-4.79;78.58
56789;BME280;42657;51.650;17.780;2022-12-18T09:38:47;102227.48;;;-4.72;78.40
56789;BME280;42657;51.650;17.780;2022-12-18T09:41:53;102219.14;;;-4.71;78.32
56789;BME280;42657;51.650;17.780;2022-12-18T09:44:56;102202.96;;;-4.67;77.95
56789;BME280;42657;51.650;17.780;2022-12-18T09:47:59;102196.10;;;-4.72;77.64
56789;BME280;42657;51.650;17.780;2022-12-18T09:51:09;102196.69;;;-4.73;77.66
56789;BME280;42657;51.650;17.780;2022-12-18T09:54:20;102193.63;;;-4.62;77.71
56789;BME280;42657;51.650;17.780;2022-12-18T09:57:24;102191.27;;;-4.53;77.38
56789;BME280;42657;51.650;17.780;2022-12-18T10:00:26;102189.08;;;-4.47;77.19
56789;BME280;42657;51.650;17.780;2022-12-18T10:03:37;102188.60;;;-4.41;77.20
56789;BME280;42657;51.650;17.780;2022-12-18T10:07:00;102191.04;;;-4.35;76.58
56789;BME280;42657;51.650;17.780;2022-12-18T10:13:42;102188.19;;;-4.25;76.88
56789;BME280;42657;51.650;17.780;2022-12-18T10:17:00;102195.38;;;-4.23;76.74
56789;BME280;42657;51.650;17.780;2022-12-18T10:20:18;102196.05;;;-4.22;76.53
56789;BME280;42657;51.650;17.780;2022-12-18T10:23:31;102205.91;;;-4.20;76.35
56789;BME280;42657;51.650;17.780;2022-12-18T10:26:34;102200.27;;;-4.22;76.37
56789;BME280;42657;51.650;17.780;2022-12-18T10:29:36;102202.56;;;-4.15;76.42
56789;BME280;42657;51.650;17.780;2022-12-18T10:32:39;102201.66;;;-4.17;76.22
56789;BME280;42657;51.650;17.780;2022-12-18T10:35:41;102196.61;;;-4.17;76.27
56789;BME280;42657;51.650;17.780;2022-12-18T10:38:43;102193.88;;;-4.12;76.46
56789;BME280;42657;51.650;17.780;2022-12-18T10:41:45;102192.67;;;-4.12;76.20
56789;BME280;42657;51.650;17.780;2022-12-18T10:45:01;102190.73;;;-4.12;75.98
56789;BME280;42657;51.650;17.780;2022-12-18T10:48:04;102193.33;;;-4.11;75.87
56789;BME280;42657;51.650;17.780;2022-12-18T10:51:06;102193.19;;;-4.02;75.86
56789;BME280;42657;51.650;17.780;2022-12-18T10:54:21;102194.16;;;-4.01;75.49
56789;BME280;42657;51.650;17.780;2022-12-18T10:57:36;102194.81;;;-4.06;75.40
56789;BME280;42657;51.650;17.780;2022-12-18T11:00:38;102201.80;;;-4.05;75.59
56789;BME280;42657;51.650;17.780;2022-12-18T11:03:42;102204.21;;;-4.02;75.48
56789;BME280;42657;51.650;17.780;2022-12-18T11:10:02;102212.75;;;-4.03;75.91
56789;BME280;42657;51.650;17.780;2022-12-18T11:13:19;102209.48;;;-4.04;75.52
56789;BME280;42657;51.650;17.780;2022-12-18T11:16:22;102207.59;;;-4.00;75.73
56789;BME280;42657;51.650;17.780;2022-12-18T11:19:36;102209.55;;;-3.94;75.42
56789;BME280;42657;51.650;17.780;2022-12-18T11:22:39;102223.77;;;-3.93;75.14
56789;BME280;42657;51.650;17.780;2022-12-18T11:25:51;102221.19;;;-3.99;74.94
56789;BME280;42657;51.650;17.780;2022-12-18T11:29:09;102222.85;;;-4.02;75.13
56789;BME280;42657;51.650;17.780;2022-12-18T11:32:39;102219.06;;;-4.01;75.05
56789;BME280;42657;51.650;17.780;2022-12-18T11:35:48;102227.94;;;-4.00;75.33
56789;BME280;42657;51.650;17.780;2022-12-18T11:38:53;102230.95;;;-3.90;75.48
56789;BME280;42657;51.650;17.780;2022-12-18T11:42:05;102240.27;;;-3.93;74.80
56789;BME280;42657;51.650;17.780;2022-12-18T11:51:55;102237.91;;;-3.85;75.19
56789;BME280;42657;51.650;17.780;2022-12-18T11:55:09;102232.29;;;-3.73;75.32
56789;BME280;42657;51.650;17.780;2022-12-18T12:01:50;102236.99;;;-3.61;74.90
56789;BME280;42657;51.650;17.780;2022-12-18T12:18:43;102222.67;;;-3.38;74.27
56789;BME280;42657;51.650;17.780;2022-12-18T12:21:58;102216.03;;;-3.32;74.43
56789;BME280;42657;51.650;17.780;2022-12-18T12:25:28;102209.98;;;-3.29;74.36
56789;BME280;42657;51.650;17.780;2022-12-18T12:28:42;102207.54;;;-3.19;74.33
56789;BME280;42657;51.650;17.780;2022-12-18T12:38:50;102210.49;;;-3.29;73.55
56789;BME280;42657;51.650;17.780;2022-12-18T12:41:54;102214.55;;;-3.35;73.87
56789;BME280;42657;51.650;17.780;2022-12-18T12:44:59;102220.56;;;-3.36;73.86
56789;BME280;42657;51.650;17.780;2022-12-18T12:48:14;102221.32;;;-3.41;73.89
56789;BME280;42657;51.650;17.780;2022-12-18T12:51:26;102224.05;;;-3.45;73.76
56789;BME280;42657;51.650;17.780;2022-12-18T12:54:31;102218.84;;;-3.36;73.74
56789;BME280;42657;51.650;17.780;2022-12-18T12:57:37;102214.02;;;-3.38;73.13
56789;BME280;42657;51.650;17.780;2022-12-18T13:01:08;102225.15;;;-3.52;73.19
56789;BME280;42657;51.650;17.780;2022-12-18T13:07:44;102227.59;;;-3.80;73.49
56789;BME280;42657;51.650;17.780;2022-12-18T13:10:47;102225.79;;;-3.89;73.86
56789;BME280;42657;51.650;17.780;2022-12-18T13:13:51;102225.58;;;-3.99;74.01
56789;BME280;42657;51.650;17.780;2022-12-18T13:20:21;102223.91;;;-4.14;74.02
56789;BME280;42657;51.650;17.780;2022-12-18T13:29:55;102227.09;;;-4.19;74.47
56789;BME280;42657;51.650;17.780;2022-12-18T13:36:37;102225.82;;;-4.33;74.42
56789;BME280;42657;51.650;17.780;2022-12-18T13:39:39;102221.39;;;-4.45;74.41
56789;BME280;42657;51.650;17.780;2022-12-18T13:42:41;102226.64;;;-4.63;74.55
56789;BME280;42657;51.650;17.780;2022-12-18T13:45:45;102222.86;;;-4.76;74.61
56789;BME280;42657;51.650;17.780;2022-12-18T13:52:22;102226.80;;;-4.92;74.83
56789;BME280;42657;51.650;17.780;2022-12-18T13:55:24;102227.84;;;-4.97;75.04
56789;BME280;42657;51.650;17.780;2022-12-18T13:58:25;102227.82;;;-5.05;75.09
56789;BME280;42657;51.650;17.780;2022-12-18T14:01:27;102231.98;;;-5.14;75.17
56789;BME280;42657;51.650;17.780;2022-12-18T14:04:31;102246.81;;;-5.24;75.30
56789;BME280;42657;51.650;17.780;2022-12-18T14:07:33;102252.84;;;-5.35;75.45
56789;BME280;42657;51.650;17.780;2022-12-18T14:10:35;102258.52;;;-5.44;75.68
56789;BME280;42657;51.650;17.780;2022-12-18T14:13:41;102253.02;;;-5.51;75.87
56789;BME280;42657;51.650;17.780;2022-12-18T14:16:46;102249.22;;;-5.57;75.85
56789;BME280;42657;51.650;17.780;2022-12-18T14:19:50;102246.41;;;-5.62;76.00
56789;BME280;42657;51.650;17.780;2022-12-18T14:22:52;102251.55;;;-5.66;75.92
56789;BME280;42657;51.650;17.780;2022-12-18T14:25:54;102249.81;;;-5.73;76.15
56789;BME280;42657;51.650;17.780;2022-12-18T14:28:57;102250.98;;;-5.81;75.96
56789;BME280;42657;51.650;17.780;2022-12-18T14:32:13;102249.16;;;-5.88;76.18
56789;BME280;42657;51.650;17.780;2022-12-18T14:35:17;102246.36;;;-5.99;76.02
56789;BME280;42657;51.650;17.780;2022-12-18T14:38:25;102241.91;;;-6.08;76.31
56789;BME280;42657;51.650;17.780;2022-12-18T14:41:27;102241.48;;;-6.18;76.48
56789;BME280;42657;51.650;17.780;2022-12-18T14:44:28;102251.36;;;-6.22;76.66
56789;BME280;42657;51.650;17.780;2022-12-18T14:47:30;102263.21;;;-6.24;76.69
56789;BME280;42657;51.650;17.780;2022-12-18T14:50:31;102270.83;;;-6.23;76.89
56789;BME280;42657;51.650;17.780;2022-12-18T14:53:39;102271.81;;;-6.22;77.11
56789;BME280;42657;51.650;17.780;2022-12-18T14:56:47;102275.17;;;-6.25;77.14
56789;BME280;42657;51.650;17.780;2022-12-18T14:59:50;102284.00;;;-6.32;77.01
56789;BME280;42657;51.650;17.780;2022-12-18T15:02:56;102283.64;;;-6.40;77.04
56789;BME280;42657;51.650;17.780;2022-12-18T15:06:15;102279.61;;;-6.46;77.05
56789;BME280;42657;51.650;17.780;2022-12-18T15:09:24;102284.09;;;-6.53;77.31
56789;BME280;42657;51.650;17.780;2022-12-18T15:12:28;102287.40;;;-6.61;77.41
56789;BME280;42657;51.650;17.780;2022-12-18T15:18:41;102292.01;;;-6.65;77.67
56789;BME280;42657;51.650;17.780;2022-12-18T15:21:43;102299.06;;;-6.61;77.86
56789;BME280;42657;51.650;17.780;2022-12-18T15:24:45;102301.61;;;-6.57;77.88
56789;BME280;42657;51.650;17.780;2022-12-18T15:27:47;102302.42;;;-6.58;77.76
56789;BME280;42657;51.650;17.780;2022-12-18T15:34:02;102306.48;;;-6.70;77.80
56789;BME280;42657;51.650;17.780;2022-12-18T15:37:07;102299.11;;;-6.76;77.82
56789;BME280;42657;51.650;17.780;2022-12-18T15:40:16;102299.77;;;-6.81;77.93
56789;BME280;42657;51.650;17.780;2022-12-18T15:43:21;102296.58;;;-6.83;78.04
56789;BME280;42657;51.650;17.780;2022-12-18T15:46:25;102290.27;;;-6.83;78.18
56789;BME280;42657;51.650;17.780;2022-12-18T15:49:27;102293.80;;;-6.78;78.25
56789;BME280;42657;51.650;17.780;2022-12-18T15:52:28;102299.79;;;-6.73;78.33
56789;BME280;42657;51.650;17.780;2022-12-18T15:55:30;102297.46;;;-6.69;78.24
56789;BME280;42657;51.650;17.780;2022-12-18T15:58:32;102292.71;;;-6.68;78.25
56789;BME280;42657;51.650;17.780;2022-12-18T16:01:33;102282.70;;;-6.67;78.30
56789;BME280;42657;51.650;17.780;2022-12-18T16:04:35;102277.17;;;-6.72;78.26
56789;BME280;42657;51.650;17.780;2022-12-18T16:07:37;102274.92;;;-6.72;78.37
56789;BME280;42657;51.650;17.780;2022-12-18T16:10:38;102270.98;;;-6.70;78.32
56789;BME280;42657;51.650;17.780;2022-12-18T16:13:40;102270.08;;;-6.70;78.27
56789;BME280;42657;51.650;17.780;2022-12-18T16:16:41;102268.24;;;-6.72;78.21
56789;BME280;42657;51.650;17.780;2022-12-18T16:19:43;102270.15;;;-6.74;78.09
56789;BME280;42657;51.650;17.780;2022-12-18T16:22:46;102265.55;;;-6.82;78.07
56789;BME280;42657;51.650;17.780;2022-12-18T16:25:47;102262.36;;;-6.90;78.15
56789;BME280;42657;51.650;17.780;2022-12-18T16:28:49;102254.13;;;-6.95;78.32
56789;BME280;42657;51.650;17.780;2022-12-18T16:31:51;102249.11;;;-6.99;78.38
56789;BME280;42657;51.650;17.780;2022-12-18T16:34:53;102244.38;;;-6.95;78.57
56789;BME280;42657;51.650;17.780;2022-12-18T16:37:55;102242.59;;;-6.92;78.41
56789;BME280;42657;51.650;17.780;2022-12-18T16:40:57;102246.73;;;-6.91;78.37
56789;BME280;42657;51.650;17.780;2022-12-18T16:43:59;102249.34;;;-6.94;78.35
56789;BME280;42657;51.650;17.780;2022-12-18T16:47:02;102252.42;;;-6.95;78.37
56789;BME280;42657;51.650;17.780;2022-12-18T16:50:04;102249.83;;;-7.02;78.34
56789;BME280;42657;51.650;17.780;2022-12-18T16:53:06;102250.21;;;-7.08;78.50
56789;BME280;42657;51.650;17.780;2022-12-18T16:56:11;102249.21;;;-7.12;78.42
56789;BME280;42657;51.650;17.780;2022-12-18T16:59:13;102250.60;;;-7.12;78.62
56789;BME280;42657;51.650;17.780;2022-12-18T17:02:22;102254.75;;;-7.08;78.62
56789;BME280;42657;51.650;17.780;2022-12-18T17:05:25;102258.94;;;-7.06;78.66
56789;BME280;42657;51.650;17.780;2022-12-18T17:08:27;102262.16;;;-7.07;78.87
56789;BME280;42657;51.650;17.780;2022-12-18T17:11:31;102263.66;;;-7.11;78.57
56789;BME280;42657;51.650;17.780;2022-12-18T17:14:33;102264.88;;;-7.14;78.74